John Day, OR (97845)

7:56 PM PDT on August 23, 2016 (GMT -0700)
Grant County Regional | | Change Station

Elev 3698 ft 44.40 °N, 118.96 °W | Updated 21 minutes ago

Clear
Clear
72 °F
Feels Like 72 °F
N
7
Wind Variable Wind from North

Today
High -- | Low -- °F
--% Chance of Precip.
Yesterday
High -- | Low -- °F
Precip. -- in
Pressure 30.16 in
Visibility 10.0 miles
Clouds Clear
Dew Point 34 °F
Humidity 25%
Rainfall 0.00 in
Snow Depth Not available.
6:08 AM 7:46 PM
Waning Gibbous, 62% visible
METAR KGCD 240235Z AUTO 35006KT 10SM CLR 22/01 A3016 RMK AO2 T02230012
Pressure 30.16 in
Visibility 10.0 miles
Clouds Clear
Dew Point 34 °F
Humidity 25%
Rainfall 0.00 in
Snow Depth Not available.
6:08 AM 7:46 PM
Waning Gibbous, 62% visible
METAR KGCD 240235Z AUTO 35006KT 10SM CLR 22/01 A3016 RMK AO2 T02230012

10-Day Weather Forecast

Almanac

Astronomy

Aug. 23, 2016 Rise Set
Actual Time
Civil Twilight
Nautical Twilight
Astronomical Twilight
Moon
Length of Visible Light
Length of Day
Tomorrow will be .
, % of the Moon is Illuminated

Today's Extremes

State Highs State Lows

Community

WunderPhotos

Upload Photos

1,934,533 photos uploaded!

WunderBlog® & News

Nearby

Air Quality

  Air Quality AQ Index Pollutant
Not available.

Snow Depth

Station Depth Elevation

Earthquake Activity

City Distance Mag. Time & Date
Minimum magnitude displayed is 2.5.

Coastal Water Temperatures

Place Temperature

Stations

Nearby Weather Stations

Station Location Temp. Windchill Dew Point Humidity Wind Precip. Elev Updated Type
                   

Watches & Warnings

There are currently no watches in effect.